sensor_id;sensor_type;location;lat;lon;timestamp;temperature;humidity
26541;DHT22;14206;50.202;10.948;2022-10-31T00:01:23;10.70;96.60
26541;DHT22;14206;50.202;10.948;2022-10-31T00:03:57;10.70;96.60
26541;DHT22;14206;50.202;10.948;2022-10-31T00:06:30;10.70;96.60
26541;DHT22;14206;50.202;10.948;2022-10-31T00:09:09;10.60;96.60
26541;DHT22;14206;50.202;10.948;2022-10-31T00:11:36;10.60;96.60
26541;DHT22;14206;50.202;10.948;2022-10-31T00:14:07;10.60;96.60
26541;DHT22;14206;50.202;10.948;2022-10-31T00:16:34;10.60;96.60
26541;DHT22;14206;50.202;10.948;2022-10-31T00:19:03;10.60;96.60
26541;DHT22;14206;50.202;10.948;2022-10-31T00:21:30;10.60;96.60
26541;DHT22;14206;50.202;10.948;2022-10-31T00:23:58;10.60;96.60
26541;DHT22;14206;50.202;10.948;2022-10-31T00:26:27;10.60;96.60
26541;DHT22;14206;50.202;10.948;2022-10-31T00:28:54;10.60;96.60
26541;DHT22;14206;50.202;10.948;2022-10-31T00:31:21;10.60;96.60
26541;DHT22;14206;50.202;10.948;2022-10-31T00:33:48;10.60;96.60
26541;DHT22;14206;50.202;10.948;2022-10-31T00:36:18;10.50;96.60
26541;DHT22;14206;50.202;10.948;2022-10-31T00:38:47;10.50;96.60
26541;DHT22;14206;50.202;10.948;2022-10-31T00:41:15;10.50;96.60
26541;DHT22;14206;50.202;10.948;2022-10-31T00:43:43;10.50;96.60
26541;DHT22;14206;50.202;10.948;2022-10-31T00:46:11;10.40;96.60
26541;DHT22;14206;50.202;10.948;2022-10-31T00:48:38;10.40;96.60
26541;DHT22;14206;50.202;10.948;2022-10-31T00:51:06;10.40;96.60
26541;DHT22;14206;50.202;10.948;2022-10-31T00:53:33;10.30;96.60
26541;DHT22;14206;50.202;10.948;2022-10-31T00:56:00;10.30;96.60
26541;DHT22;14206;50.202;10.948;2022-10-31T00:58:27;10.20;96.60
26541;DHT22;14206;50.202;10.948;2022-10-31T01:00:54;10.20;96.60
26541;DHT22;14206;50.202;10.948;2022-10-31T01:03:24;10.20;96.60
26541;DHT22;14206;50.202;10.948;2022-10-31T01:06:03;10.20;96.60
26541;DHT22;14206;50.202;10.948;2022-10-31T01:08:32;10.30;96.60
26541;DHT22;14206;50.202;10.948;2022-10-31T01:13:41;10.30;96.60
26541;DHT22;14206;50.202;10.948;2022-10-31T01:16:11;10.30;96.60
26541;DHT22;14206;50.202;10.948;2022-10-31T01:18:38;10.20;96.60
26541;DHT22;14206;50.202;10.948;2022-10-31T01:21:12;10.30;96.60
26541;DHT22;14206;50.202;10.948;2022-10-31T01:23:40;10.30;96.60
26541;DHT22;14206;50.202;10.948;2022-10-31T01:28:36;10.20;96.60
26541;DHT22;14206;50.202;10.948;2022-10-31T01:31:14;10.10;96.60
26541;DHT22;14206;50.202;10.948;2022-10-31T01:33:42;10.10;96.60
26541;DHT22;14206;50.202;10.948;2022-10-31T01:36:19;10.10;96.60
26541;DHT22;14206;50.202;10.948;2022-10-31T01:38:51;10.10;96.60
26541;DHT22;14206;50.202;10.948;2022-10-31T01:41:21;10.20;96.60
26541;DHT22;14206;50.202;10.948;2022-10-31T01:43:55;10.10;96.60
26541;DHT22;14206;50.202;10.948;2022-10-31T01:46:31;10.10;96.60
26541;DHT22;14206;50.202;10.948;2022-10-31T01:49:01;10.10;96.60
26541;DHT22;14206;50.202;10.948;2022-10-31T01:51:33;10.10;96.60
26541;DHT22;14206;50.202;10.948;2022-10-31T01:54:05;10.10;96.60
26541;DHT22;14206;50.202;10.948;2022-10-31T01:56:34;10.00;96.60
26541;DHT22;14206;50.202;10.948;2022-10-31T01:59:05;10.00;96.60
26541;DHT22;14206;50.202;10.948;2022-10-31T02:01:34;10.00;96.60
26541;DHT22;14206;50.202;10.948;2022-10-31T02:04:02;10.00;96.60
26541;DHT22;14206;50.202;10.948;2022-10-31T02:06:40;10.00;96.60
26541;DHT22;14206;50.202;10.948;2022-10-31T02:09:12;10.00;96.60
26541;DHT22;14206;50.202;10.948;2022-10-31T02:11:47;10.00;96.60
26541;DHT22;14206;50.202;10.948;2022-10-31T02:14:14;10.00;96.60
26541;DHT22;14206;50.202;10.948;2022-10-31T02:16:41;10.00;96.60
26541;DHT22;14206;50.202;10.948;2022-10-31T02:19:09;10.00;96.60
26541;DHT22;14206;50.202;10.948;2022-10-31T02:22:36;9.90;96.60
26541;DHT22;14206;50.202;10.948;2022-10-31T02:44:45;9.60;96.60
26541;DHT22;14206;50.202;10.948;2022-10-31T02:47:18;9.60;96.60
26541;DHT22;14206;50.202;10.948;2022-10-31T02:49:55;9.60;96.60
26541;DHT22;14206;50.202;10.948;2022-10-31T02:52:31;9.60;96.60
26541;DHT22;14206;50.202;10.948;2022-10-31T02:58:07;9.60;96.60
26541;DHT22;14206;50.202;10.948;2022-10-31T03:13:41;9.80;96.60
26541;DHT22;14206;50.202;10.948;2022-10-31T03:19:05;9.80;96.60
26541;DHT22;14206;50.202;10.948;2022-10-31T03:21:57;9.80;96.60
26541;DHT22;14206;50.202;10.948;2022-10-31T03:24:30;9.80;96.60
26541;DHT22;14206;50.202;10.948;2022-10-31T03:26:59;9.90;96.60
26541;DHT22;14206;50.202;10.948;2022-10-31T03:29:33;9.90;96.60
26541;DHT22;14206;50.202;10.948;2022-10-31T03:32:18;10.00;96.60
26541;DHT22;14206;50.202;10.948;2022-10-31T03:34:47;10.00;96.60
26541;DHT22;14206;50.202;10.948;2022-10-31T03:37:19;10.00;96.60
26541;DHT22;14206;50.202;10.948;2022-10-31T03:39:48;10.00;96.60
26541;DHT22;14206;50.202;10.948;2022-10-31T03:42:28;10.10;96.60
26541;DHT22;14206;50.202;10.948;2022-10-31T03:47:30;10.10;96.60
26541;DHT22;14206;50.202;10.948;2022-10-31T03:49:58;10.10;96.60
26541;DHT22;14206;50.202;10.948;2022-10-31T03:55:07;10.20;96.60
26541;DHT22;14206;50.202;10.948;2022-10-31T03:57:41;10.30;96.60
26541;DHT22;14206;50.202;10.948;2022-10-31T04:00:14;10.30;96.60
26541;DHT22;14206;50.202;10.948;2022-10-31T04:02:53;10.30;96.60
26541;DHT22;14206;50.202;10.948;2022-10-31T04:05:20;10.40;96.60
26541;DHT22;14206;50.202;10.948;2022-10-31T04:07:53;10.40;96.60
26541;DHT22;14206;50.202;10.948;2022-10-31T04:10:22;10.40;96.60
26541;DHT22;14206;50.202;10.948;2022-10-31T04:13:07;10.40;96.60
26541;DHT22;14206;50.202;10.948;2022-10-31T04:15:44;10.40;96.60
26541;DHT22;14206;50.202;10.948;2022-10-31T04:18:17;10.50;96.60
26541;DHT22;14206;50.202;10.948;2022-10-31T04:20:44;10.40;96.60
26541;DHT22;14206;50.202;10.948;2022-10-31T04:23:24;10.40;96.60
26541;DHT22;14206;50.202;10.948;2022-10-31T04:25:52;10.40;96.60
26541;DHT22;14206;50.202;10.948;2022-10-31T04:28:25;10.40;96.60
26541;DHT22;14206;50.202;10.948;2022-10-31T04:30:59;10.40;96.60
26541;DHT22;14206;50.202;10.948;2022-10-31T04:33:27;10.40;96.60
26541;DHT22;14206;50.202;10.948;2022-10-31T04:35:54;10.40;96.60
26541;DHT22;14206;50.202;10.948;2022-10-31T04:38:21;10.30;96.60
26541;DHT22;14206;50.202;10.948;2022-10-31T04:40:49;10.10;96.60
26541;DHT22;14206;50.202;10.948;2022-10-31T04:43:54;9.90;96.60
26541;DHT22;14206;50.202;10.948;2022-10-31T04:46:21;9.70;96.60
26541;DHT22;14206;50.202;10.948;2022-10-31T04:48:48;9.60;96.60
26541;DHT22;14206;50.202;10.948;2022-10-31T04:51:22;9.50;96.60
26541;DHT22;14206;50.202;10.948;2022-10-31T04:54:03;9.40;96.60
26541;DHT22;14206;50.202;10.948;2022-10-31T04:57:05;9.30;96.60
26541;DHT22;14206;50.202;10.948;2022-10-31T04:59:32;9.30;96.60
26541;DHT22;14206;50.202;10.948;2022-10-31T05:02:19;9.40;96.60
26541;DHT22;14206;50.202;10.948;2022-10-31T05:04:52;9.40;96.60
26541;DHT22;14206;50.202;10.948;2022-10-31T05:07:20;9.40;96.60
26541;DHT22;14206;50.202;10.948;2022-10-31T05:09:46;9.40;96.60
26541;DHT22;14206;50.202;10.948;2022-10-31T05:12:13;9.40;96.60
26541;DHT22;14206;50.202;10.948;2022-10-31T05:14:59;9.40;96.60
26541;DHT22;14206;50.202;10.948;2022-10-31T05:17:48;9.40;96.60
26541;DHT22;14206;50.202;10.948;2022-10-31T05:20:34;9.40;96.60
26541;DHT22;14206;50.202;10.948;2022-10-31T05:23:15;9.40;96.60
26541;DHT22;14206;50.202;10.948;2022-10-31T05:25:42;9.50;96.60
26541;DHT22;14206;50.202;10.948;2022-10-31T05:28:09;9.50;96.60
26541;DHT22;14206;50.202;10.948;2022-10-31T05:30:37;9.40;96.60
26541;DHT22;14206;50.202;10.948;2022-10-31T05:33:07;9.40;96.60
26541;DHT22;14206;50.202;10.948;2022-10-31T05:36:10;9.40;96.60
26541;DHT22;14206;50.202;10.948;2022-10-31T05:39:03;9.40;96.60
26541;DHT22;14206;50.202;10.948;2022-10-31T05:41:34;9.40;96.60
26541;DHT22;14206;50.202;10.948;2022-10-31T05:44:08;9.40;96.60
26541;DHT22;14206;50.202;10.948;2022-10-31T05:46:50;9.40;96.60
26541;DHT22;14206;50.202;10.948;2022-10-31T05:49:35;9.40;96.60
26541;DHT22;14206;50.202;10.948;2022-10-31T05:52:22;9.40;96.60
26541;DHT22;14206;50.202;10.948;2022-10-31T05:54:56;9.40;96.60
26541;DHT22;14206;50.202;10.948;2022-10-31T05:57:23;9.50;96.60
26541;DHT22;14206;50.202;10.948;2022-10-31T05:59:55;9.50;96.60
26541;DHT22;14206;50.202;10.948;2022-10-31T06:02:25;9.50;96.60
26541;DHT22;14206;50.202;10.948;2022-10-31T06:05:16;9.40;96.60
26541;DHT22;14206;50.202;10.948;2022-10-31T06:07:43;9.30;96.60
26541;DHT22;14206;50.202;10.948;2022-10-31T06:10:10;9.30;96.60
26541;DHT22;14206;50.202;10.948;2022-10-31T06:12:37;9.30;96.60
26541;DHT22;14206;50.202;10.948;2022-10-31T06:15:19;9.40;96.60
26541;DHT22;14206;50.202;10.948;2022-10-31T06:18:03;9.50;96.60
26541;DHT22;14206;50.202;10.948;2022-10-31T06:20:34;9.50;96.60
26541;DHT22;14206;50.202;10.948;2022-10-31T06:23:09;9.50;96.60
26541;DHT22;14206;50.202;10.948;2022-10-31T06:25:49;9.60;96.60
26541;DHT22;14206;50.202;10.948;2022-10-31T06:28:16;9.60;96.60
26541;DHT22;14206;50.202;10.948;2022-10-31T06:30:49;9.50;96.60
26541;DHT22;14206;50.202;10.948;2022-10-31T06:33:21;9.50;96.60
26541;DHT22;14206;50.202;10.948;2022-10-31T06:36:00;9.50;96.60
26541;DHT22;14206;50.202;10.948;2022-10-31T06:38:27;9.60;96.60
26541;DHT22;14206;50.202;10.948;2022-10-31T06:40:56;9.60;96.60
26541;DHT22;14206;50.202;10.948;2022-10-31T06:43:25;9.60;96.60
26541;DHT22;14206;50.202;10.948;2022-10-31T06:46:11;9.70;96.60
26541;DHT22;14206;50.202;10.948;2022-10-31T06:48:42;9.80;96.60
26541;DHT22;14206;50.202;10.948;2022-10-31T06:51:16;9.90;96.60
26541;DHT22;14206;50.202;10.948;2022-10-31T06:53:43;10.00;96.60
26541;DHT22;14206;50.202;10.948;2022-10-31T06:56:11;10.10;96.60
26541;DHT22;14206;50.202;10.948;2022-10-31T06:58:48;10.30;96.60
26541;DHT22;14206;50.202;10.948;2022-10-31T07:01:18;10.60;96.60
26541;DHT22;14206;50.202;10.948;2022-10-31T07:03:47;10.90;96.60
26541;DHT22;14206;50.202;10.948;2022-10-31T07:06:13;11.30;96.60
26541;DHT22;14206;50.202;10.948;2022-10-31T07:08:41;11.50;96.60
26541;DHT22;14206;50.202;10.948;2022-10-31T07:11:28;11.60;96.60
26541;DHT22;14206;50.202;10.948;2022-10-31T07:13:56;11.80;96.60
26541;DHT22;14206;50.202;10.948;2022-10-31T07:16:23;11.90;96.60
26541;DHT22;14206;50.202;10.948;2022-10-31T07:18:50;12.10;96.60
26541;DHT22;14206;50.202;10.948;2022-10-31T07:21:17;12.30;96.60
26541;DHT22;14206;50.202;10.948;2022-10-31T07:23:48;12.60;96.60
26541;DHT22;14206;50.202;10.948;2022-10-31T07:26:40;12.90;96.60
26541;DHT22;14206;50.202;10.948;2022-10-31T07:29:09;13.30;95.50
26541;DHT22;14206;50.202;10.948;2022-10-31T07:31:36;13.50;95.60
26541;DHT22;14206;50.202;10.948;2022-10-31T07:34:24;13.90;95.80
26541;DHT22;14206;50.202;10.948;2022-10-31T07:37:10;14.30;94.50
26541;DHT22;14206;50.202;10.948;2022-10-31T07:39:37;14.70;93.50
26541;DHT22;14206;50.202;10.948;2022-10-31T07:42:05;15.00;93.10
26541;DHT22;14206;50.202;10.948;2022-10-31T07:44:33;15.30;92.10
26541;DHT22;14206;50.202;10.948;2022-10-31T07:47:19;15.50;91.60
26541;DHT22;14206;50.202;10.948;2022-10-31T07:50:06;15.70;91.20
26541;DHT22;14206;50.202;10.948;2022-10-31T07:53:04;16.00;91.50
26541;DHT22;14206;50.202;10.948;2022-10-31T07:55:43;16.30;89.90
26541;DHT22;14206;50.202;10.948;2022-10-31T07:58:14;16.60;89.20
26541;DHT22;14206;50.202;10.948;2022-10-31T08:00:44;16.90;88.30
26541;DHT22;14206;50.202;10.948;2022-10-31T08:03:17;17.10;88.00
26541;DHT22;14206;50.202;10.948;2022-10-31T08:05:49;17.20;86.90
26541;DHT22;14206;50.202;10.948;2022-10-31T08:08:27;17.40;86.80
26541;DHT22;14206;50.202;10.948;2022-10-31T08:10:59;17.60;86.30
26541;DHT22;14206;50.202;10.948;2022-10-31T08:13:25;17.80;86.20
26541;DHT22;14206;50.202;10.948;2022-10-31T08:16:07;17.90;85.80
26541;DHT22;14206;50.202;10.948;2022-10-31T08:18:37;17.90;84.90
26541;DHT22;14206;50.202;10.948;2022-10-31T08:21:07;18.00;85.60
26541;DHT22;14206;50.202;10.948;2022-10-31T08:23:34;18.00;84.90
26541;DHT22;14206;50.202;10.948;2022-10-31T08:26:02;18.00;85.30
26541;DHT22;14206;50.202;10.948;2022-10-31T08:28:29;18.10;85.40
26541;DHT22;14206;50.202;10.948;2022-10-31T08:30:57;18.30;84.80
26541;DHT22;14206;50.202;10.948;2022-10-31T08:33:39;18.40;84.40
26541;DHT22;14206;50.202;10.948;2022-10-31T08:36:31;18.50;83.70
26541;DHT22;14206;50.202;10.948;2022-10-31T08:38:58;18.50;84.10
26541;DHT22;14206;50.202;10.948;2022-10-31T08:41:29;18.40;84.80
26541;DHT22;14206;50.202;10.948;2022-10-31T08:43:57;18.40;84.30
26541;DHT22;14206;50.202;10.948;2022-10-31T08:46:24;18.20;85.10
26541;DHT22;14206;50.202;10.948;2022-10-31T08:48:51;18.10;85.60
26541;DHT22;14206;50.202;10.948;2022-10-31T08:51:19;18.10;85.30
26541;DHT22;14206;50.202;10.948;2022-10-31T08:53:49;18.00;86.40
26541;DHT22;14206;50.202;10.948;2022-10-31T08:56:42;18.10;86.30
26541;DHT22;14206;50.202;10.948;2022-10-31T08:59:22;18.10;86.50
26541;DHT22;14206;50.202;10.948;2022-10-31T09:02:12;18.10;86.10
26541;DHT22;14206;50.202;10.948;2022-10-31T09:04:39;18.20;87.00
26541;DHT22;14206;50.202;10.948;2022-10-31T09:07:06;18.30;87.50
26541;DHT22;14206;50.202;10.948;2022-10-31T09:09:48;18.50;86.10
26541;DHT22;14206;50.202;10.948;2022-10-31T09:12:16;18.60;86.20
26541;DHT22;14206;50.202;10.948;2022-10-31T09:15:01;18.60;86.50
26541;DHT22;14206;50.202;10.948;2022-10-31T09:17:52;18.70;86.00
26541;DHT22;14206;50.202;10.948;2022-10-31T09:20:45;18.90;86.20
26541;DHT22;14206;50.202;10.948;2022-10-31T09:23:14;19.20;85.70
26541;DHT22;14206;50.202;10.948;2022-10-31T09:25:41;19.50;85.10
26541;DHT22;14206;50.202;10.948;2022-10-31T09:28:34;19.60;84.50
26541;DHT22;14206;50.202;10.948;2022-10-31T09:31:07;19.90;83.80
26541;DHT22;14206;50.202;10.948;2022-10-31T09:33:54;20.20;82.90
26541;DHT22;14206;50.202;10.948;2022-10-31T09:36:44;20.80;82.00
26541;DHT22;14206;50.202;10.948;2022-10-31T09:39:19;21.70;80.10
26541;DHT22;14206;50.202;10.948;2022-10-31T09:44:51;23.20;75.40
26541;DHT22;14206;50.202;10.948;2022-10-31T09:47:52;23.90;73.50
26541;DHT22;14206;50.202;10.948;2022-10-31T09:53:41;24.50;71.10
26541;DHT22;14206;50.202;10.948;2022-10-31T09:56:14;24.80;68.80
26541;DHT22;14206;50.202;10.948;2022-10-31T09:58:50;25.30;70.30
26541;DHT22;14206;50.202;10.948;2022-10-31T10:01:43;25.70;69.20
26541;DHT22;14206;50.202;10.948;2022-10-31T10:04:42;26.20;66.60
26541;DHT22;14206;50.202;10.948;2022-10-31T10:10:15;26.40;66.40
26541;DHT22;14206;50.202;10.948;2022-10-31T10:21:56;26.70;64.60
26541;DHT22;14206;50.202;10.948;2022-10-31T10:33:09;25.90;67.60
26541;DHT22;14206;50.202;10.948;2022-10-31T10:35:47;25.50;68.40
26541;DHT22;14206;50.202;10.948;2022-10-31T10:40:46;24.90;68.50
26541;DHT22;14206;50.202;10.948;2022-10-31T10:43:38;24.60;69.50
26541;DHT22;14206;50.202;10.948;2022-10-31T10:49:26;24.00;70.60
26541;DHT22;14206;50.202;10.948;2022-10-31T10:51:59;23.80;71.10
26541;DHT22;14206;50.202;10.948;2022-10-31T10:55:09;23.60;72.30
26541;DHT22;14206;50.202;10.948;2022-10-31T10:58:02;23.40;71.30
26541;DHT22;14206;50.202;10.948;2022-10-31T11:00:36;23.20;72.50
26541;DHT22;14206;50.202;10.948;2022-10-31T11:03:05;23.20;73.00
26541;DHT22;14206;50.202;10.948;2022-10-31T11:05:40;23.10;73.90
26541;DHT22;14206;50.202;10.948;2022-10-31T11:08:09;23.00;73.90
26541;DHT22;14206;50.202;10.948;2022-10-31T11:10:36;22.90;74.10
26541;DHT22;14206;50.202;10.948;2022-10-31T11:13:17;22.80;73.60
26541;DHT22;14206;50.202;10.948;2022-10-31T11:18:24;22.60;75.50
26541;DHT22;14206;50.202;10.948;2022-10-31T11:21:04;22.70;75.60
26541;DHT22;14206;50.202;10.948;2022-10-31T11:23:32;22.60;75.20
26541;DHT22;14206;50.202;10.948;2022-10-31T11:26:02;22.60;74.80
26541;DHT22;14206;50.202;10.948;2022-10-31T11:28:31;22.60;74.90
26541;DHT22;14206;50.202;10.948;2022-10-31T11:31:04;22.60;75.60
26541;DHT22;14206;50.202;10.948;2022-10-31T11:33:59;22.60;75.20
26541;DHT22;14206;50.202;10.948;2022-10-31T11:36:30;22.70;75.30
26541;DHT22;14206;50.202;10.948;2022-10-31T11:38:59;22.60;73.10
26541;DHT22;14206;50.202;10.948;2022-10-31T11:41:44;22.60;73.80
26541;DHT22;14206;50.202;10.948;2022-10-31T11:44:15;22.40;73.00
26541;DHT22;14206;50.202;10.948;2022-10-31T11:46:46;22.30;73.50
26541;DHT22;14206;50.202;10.948;2022-10-31T11:49:32;22.30;74.20
26541;DHT22;14206;50.202;10.948;2022-10-31T11:52:00;22.30;73.60
26541;DHT22;14206;50.202;10.948;2022-10-31T11:54:42;22.30;74.80
26541;DHT22;14206;50.202;10.948;2022-10-31T11:57:32;22.40;76.70
26541;DHT22;14206;50.202;10.948;2022-10-31T12:00:01;22.40;76.70
26541;DHT22;14206;50.202;10.948;2022-10-31T12:02:44;22.40;76.10
26541;DHT22;14206;50.202;10.948;2022-10-31T12:05:26;22.40;76.90
26541;DHT22;14206;50.202;10.948;2022-10-31T12:07:59;22.40;76.00
26541;DHT22;14206;50.202;10.948;2022-10-31T12:10:39;22.40;76.00
26541;DHT22;14206;50.202;10.948;2022-10-31T12:13:48;22.40;76.20
26541;DHT22;14206;50.202;10.948;2022-10-31T12:19:04;22.40;77.30
26541;DHT22;14206;50.202;10.948;2022-10-31T12:39:24;22.30;76.30
26541;DHT22;14206;50.202;10.948;2022-10-31T12:42:03;22.20;75.40
26541;DHT22;14206;50.202;10.948;2022-10-31T12:50:28;22.20;76.60
26541;DHT22;14206;50.202;10.948;2022-10-31T12:56:19;22.20;77.30
26541;DHT22;14206;50.202;10.948;2022-10-31T12:59:02;22.20;76.90
26541;DHT22;14206;50.202;10.948;2022-10-31T13:01:39;22.20;76.70
26541;DHT22;14206;50.202;10.948;2022-10-31T13:06:57;22.10;77.10
26541;DHT22;14206;50.202;10.948;2022-10-31T13:09:34;22.00;77.20
26541;DHT22;14206;50.202;10.948;2022-10-31T13:12:13;22.00;77.10
26541;DHT22;14206;50.202;10.948;2022-10-31T13:14:49;21.90;77.20
26541;DHT22;14206;50.202;10.948;2022-10-31T13:17:35;21.90;77.10
26541;DHT22;14206;50.202;10.948;2022-10-31T13:20:15;21.90;76.90
26541;DHT22;14206;50.202;10.948;2022-10-31T13:22:45;21.90;76.90
26541;DHT22;14206;50.202;10.948;2022-10-31T13:25:24;21.80;77.10
26541;DHT22;14206;50.202;10.948;2022-10-31T13:28:02;21.80;76.70
26541;DHT22;14206;50.202;10.948;2022-10-31T13:30:33;21.80;78.30
26541;DHT22;14206;50.202;10.948;2022-10-31T13:33:24;21.80;77.80
26541;DHT22;14206;50.202;10.948;2022-10-31T13:38:47;21.70;78.70
26541;DHT22;14206;50.202;10.948;2022-10-31T13:48:52;21.40;79.90
26541;DHT22;14206;50.202;10.948;2022-10-31T13:51:27;21.40;80.60
26541;DHT22;14206;50.202;10.948;2022-10-31T13:56:24;21.20;81.70
26541;DHT22;14206;50.202;10.948;2022-10-31T14:01:50;21.00;82.20
26541;DHT22;14206;50.202;10.948;2022-10-31T14:04:21;20.90;81.90
26541;DHT22;14206;50.202;10.948;2022-10-31T14:07:13;20.80;81.80
26541;DHT22;14206;50.202;10.948;2022-10-31T14:09:54;20.80;81.50
26541;DHT22;14206;50.202;10.948;2022-10-31T14:15:17;20.70;82.30
26541;DHT22;14206;50.202;10.948;2022-10-31T14:17:48;20.60;82.50
26541;DHT22;14206;50.202;10.948;2022-10-31T14:22:43;20.60;83.50
26541;DHT22;14206;50.202;10.948;2022-10-31T14:25:31;20.50;82.90
26541;DHT22;14206;50.202;10.948;2022-10-31T14:28:01;20.50;83.10
26541;DHT22;14206;50.202;10.948;2022-10-31T14:30:30;20.40;83.20
26541;DHT22;14206;50.202;10.948;2022-10-31T14:33:00;20.40;84.00
26541;DHT22;14206;50.202;10.948;2022-10-31T14:44:04;19.90;85.80
26541;DHT22;14206;50.202;10.948;2022-10-31T14:52:08;19.70;86.50
26541;DHT22;14206;50.202;10.948;2022-10-31T14:54:43;19.60;86.70
26541;DHT22;14206;50.202;10.948;2022-10-31T14:59:49;19.40;86.90
26541;DHT22;14206;50.202;10.948;2022-10-31T15:05:11;19.30;86.80
26541;DHT22;14206;50.202;10.948;2022-10-31T15:07:54;19.20;86.70
26541;DHT22;14206;50.202;10.948;2022-10-31T15:10:32;19.20;86.80
26541;DHT22;14206;50.202;10.948;2022-10-31T15:15:42;19.10;86.90
26541;DHT22;14206;50.202;10.948;2022-10-31T15:18:22;18.90;87.60
26541;DHT22;14206;50.202;10.948;2022-10-31T15:20:50;18.80;87.50
26541;DHT22;14206;50.202;10.948;2022-10-31T15:23:26;18.80;88.60
26541;DHT22;14206;50.202;10.948;2022-10-31T15:26:01;18.80;88.80
26541;DHT22;14206;50.202;10.948;2022-10-31T15:28:29;18.70;89.00
26541;DHT22;14206;50.202;10.948;2022-10-31T15:31:01;18.70;89.30
26541;DHT22;14206;50.202;10.948;2022-10-31T15:33:39;18.50;89.20
26541;DHT22;14206;50.202;10.948;2022-10-31T15:36:24;18.40;89.10
26541;DHT22;14206;50.202;10.948;2022-10-31T15:38:56;18.30;89.80
26541;DHT22;14206;50.202;10.948;2022-10-31T15:41:31;18.20;90.40
26541;DHT22;14206;50.202;10.948;2022-10-31T15:44:10;18.10;90.70
26541;DHT22;14206;50.202;10.948;2022-10-31T15:46:40;18.10;90.60
26541;DHT22;14206;50.202;10.948;2022-10-31T15:49:27;18.00;90.80
26541;DHT22;14206;50.202;10.948;2022-10-31T15:51:56;17.90;90.80
26541;DHT22;14206;50.202;10.948;2022-10-31T15:54:26;17.80;90.80
26541;DHT22;14206;50.202;10.948;2022-10-31T15:56:53;17.70;90.90
26541;DHT22;14206;50.202;10.948;2022-10-31T15:59:22;17.60;91.70
26541;DHT22;14206;50.202;10.948;2022-10-31T16:02:01;17.50;91.30
26541;DHT22;14206;50.202;10.948;2022-10-31T16:04:30;17.50;91.30
26541;DHT22;14206;50.202;10.948;2022-10-31T16:07:02;17.50;91.40
26541;DHT22;14206;50.202;10.948;2022-10-31T16:09:51;17.40;91.90
26541;DHT22;14206;50.202;10.948;2022-10-31T16:12:20;17.40;92.00
26541;DHT22;14206;50.202;10.948;2022-10-31T16:14:52;17.30;92.20
26541;DHT22;14206;50.202;10.948;2022-10-31T16:17:22;17.20;92.50
26541;DHT22;14206;50.202;10.948;2022-10-31T16:19:52;17.10;92.40
26541;DHT22;14206;50.202;10.948;2022-10-31T16:22:23;17.10;93.00
26541;DHT22;14206;50.202;10.948;2022-10-31T16:24:58;17.00;92.90
26541;DHT22;14206;50.202;10.948;2022-10-31T16:27:28;16.90;93.00
26541;DHT22;14206;50.202;10.948;2022-10-31T16:29:58;16.80;93.30
26541;DHT22;14206;50.202;10.948;2022-10-31T16:37:41;16.50;94.00
26541;DHT22;14206;50.202;10.948;2022-10-31T16:40:13;16.50;94.20
26541;DHT22;14206;50.202;10.948;2022-10-31T16:42:44;16.40;94.30
26541;DHT22;14206;50.202;10.948;2022-10-31T16:45:21;16.30;94.40
26541;DHT22;14206;50.202;10.948;2022-10-31T16:47:49;16.30;94.80
26541;DHT22;14206;50.202;10.948;2022-10-31T16:50:20;16.20;95.20
26541;DHT22;14206;50.202;10.948;2022-10-31T16:52:48;16.10;95.20
26541;DHT22;14206;50.202;10.948;2022-10-31T16:56:41;16.10;95.30
26541;DHT22;14206;50.202;10.948;2022-10-31T16:58:43;16.10;95.30
26541;DHT22;14206;50.202;10.948;2022-10-31T17:01:11;16.00;95.70
26541;DHT22;14206;50.202;10.948;2022-10-31T17:03:39;16.00;95.50
26541;DHT22;14206;50.202;10.948;2022-10-31T17:06:11;16.00;95.50
26541;DHT22;14206;50.202;10.948;2022-10-31T17:08:38;16.00;95.70
26541;DHT22;14206;50.202;10.948;2022-10-31T17:11:05;16.00;95.80
26541;DHT22;14206;50.202;10.948;2022-10-31T17:13:35;16.00;95.70
26541;DHT22;14206;50.202;10.948;2022-10-31T17:16:02;15.90;95.70
26541;DHT22;14206;50.202;10.948;2022-10-31T17:18:29;15.90;95.80
26541;DHT22;14206;50.202;10.948;2022-10-31T17:21:03;15.80;96.20
26541;DHT22;14206;50.202;10.948;2022-10-31T17:23:31;15.70;96.20
26541;DHT22;14206;50.202;10.948;2022-10-31T17:25:59;15.60;96.10
26541;DHT22;14206;50.202;10.948;2022-10-31T17:28:26;15.40;96.10
26541;DHT22;14206;50.202;10.948;2022-10-31T17:30:56;15.30;96.50
26541;DHT22;14206;50.202;10.948;2022-10-31T17:33:24;15.20;96.40
26541;DHT22;14206;50.202;10.948;2022-10-31T17:35:51;15.20;96.60
26541;DHT22;14206;50.202;10.948;2022-10-31T17:38:18;15.10;96.60
26541;DHT22;14206;50.202;10.948;2022-10-31T17:40:45;15.10;96.60
26541;DHT22;14206;50.202;10.948;2022-10-31T17:43:16;15.00;96.60
26541;DHT22;14206;50.202;10.948;2022-10-31T17:45:43;15.00;96.60
26541;DHT22;14206;50.202;10.948;2022-10-31T17:48:10;14.90;96.60
26541;DHT22;14206;50.202;10.948;2022-10-31T17:50:38;14.90;96.60
26541;DHT22;14206;50.202;10.948;2022-10-31T17:53:05;14.70;96.60
26541;DHT22;14206;50.202;10.948;2022-10-31T17:55:32;14.60;96.60
26541;DHT22;14206;50.202;10.948;2022-10-31T17:58:03;14.50;96.60
26541;DHT22;14206;50.202;10.948;2022-10-31T18:00:30;14.50;96.60
26541;DHT22;14206;50.202;10.948;2022-10-31T18:02:58;14.40;96.60
26541;DHT22;14206;50.202;10.948;2022-10-31T18:05:38;14.40;96.60
26541;DHT22;14206;50.202;10.948;2022-10-31T18:08:05;14.40;96.60
26541;DHT22;14206;50.202;10.948;2022-10-31T18:10:32;14.30;96.60
26541;DHT22;14206;50.202;10.948;2022-10-31T18:12:58;14.30;96.60
26541;DHT22;14206;50.202;10.948;2022-10-31T18:15:26;14.20;96.60
26541;DHT22;14206;50.202;10.948;2022-10-31T18:17:53;14.20;96.60
26541;DHT22;14206;50.202;10.948;2022-10-31T18:20:20;14.10;96.60
26541;DHT22;14206;50.202;10.948;2022-10-31T18:22:46;14.10;96.60
26541;DHT22;14206;50.202;10.948;2022-10-31T18:25:13;14.00;96.60
26541;DHT22;14206;50.202;10.948;2022-10-31T18:27:40;14.00;96.60
26541;DHT22;14206;50.202;10.948;2022-10-31T18:30:07;13.90;96.60
26541;DHT22;14206;50.202;10.948;2022-10-31T18:32:34;13.90;96.60
26541;DHT22;14206;50.202;10.948;2022-10-31T18:35:02;13.80;96.60
26541;DHT22;14206;50.202;10.948;2022-10-31T18:37:28;13.80;96.60
26541;DHT22;14206;50.202;10.948;2022-10-31T18:39:55;13.80;96.60
26541;DHT22;14206;50.202;10.948;2022-10-31T18:42:22;13.70;96.60
26541;DHT22;14206;50.202;10.948;2022-10-31T18:44:49;13.60;96.60